Time;durP1;ratioP1;P1;durP2;ratioP2;P2;SDS_P1;SDS_P2;PMS_P1;PMS_P2;Temp;Humidity;BMP_temperature;BMP_pressure;BME280_temperature;BME280_humidity;BME280_pressure;Samples;Min_cycle;Max_cycle;Signal;HPM_P1;HPM_P2
2022/07/27 00:00:35;;;;;;;2.58;1.80;;;;;;;;;;2066149;28;20174;-66
2022/07/27 00:01:35;;;;;;;5.47;2.10;;;;;;;;;;2068349;28;20225;-65
2022/07/27 00:02:35;;;;;;;4.57;1.92;;;;;;;;;;2074668;28;20204;-67
2022/07/27 00:03:36;;;;;;;5.22;2.15;;;;;;;;;;2074776;28;20175;-65
2022/07/27 00:04:36;;;;;;;2.05;1.85;;;;;;;;;;2072947;28;20204;-65
2022/07/27 00:05:38;;;;;;;2.15;1.90;;;;;;;;;;2074112;28;20219;-66
2022/07/27 00:06:39;;;;;;;3.95;2.15;;;;;;;;;;2074074;28;20256;-65
2022/07/27 00:07:39;;;;;;;5.45;2.15;;;;;;;;;;2074386;28;20614;-66
2022/07/27 00:08:39;;;;;;;2.63;2.28;;;;;;;;;;2074537;28;20177;-64
2022/07/27 00:09:39;;;;;;;5.15;2.28;;;;;;;;;;2074368;28;20184;-65
2022/07/27 00:10:40;;;;;;;4.15;2.13;;;;;;;;;;2073549;28;20161;-65
2022/07/27 00:11:40;;;;;;;4.47;2.00;;;;;;;;;;2074318;28;20169;-65
2022/07/27 00:12:41;;;;;;;2.40;2.17;;;;;;;;;;2073967;28;20630;-65
2022/07/27 00:13:41;;;;;;;2.30;2.10;;;;;;;;;;2073980;28;20641;-66
2022/07/27 00:14:42;;;;;;;2.78;1.95;;;;;;;;;;2072800;28;20201;-65
2022/07/27 00:15:42;;;;;;;3.03;2.33;;;;;;;;;;2073874;28;20169;-64
2022/07/27 00:16:42;;;;;;;4.50;2.20;;;;;;;;;;2074390;28;20188;-64
2022/07/27 00:17:43;;;;;;;4.63;2.08;;;;;;;;;;2074515;28;20172;-64
2022/07/27 00:18:43;;;;;;;5.07;2.75;;;;;;;;;;2074369;28;20634;-67
2022/07/27 00:19:43;;;;;;;2.40;2.00;;;;;;;;;;2074289;28;20164;-65
2022/07/27 00:20:44;;;;;;;3.28;2.22;;;;;;;;;;2074663;28;20165;-65
2022/07/27 00:21:44;;;;;;;2.92;2.42;;;;;;;;;;2074069;28;20231;-64
2022/07/27 00:22:44;;;;;;;2.67;2.35;;;;;;;;;;2073558;28;20165;-65
2022/07/27 00:23:44;;;;;;;5.75;2.70;;;;;;;;;;2073719;28;20885;-64
2022/07/27 00:24:45;;;;;;;4.70;2.35;;;;;;;;;;2073298;28;20219;-64
2022/07/27 00:25:45;;;;;;;3.20;2.15;;;;;;;;;;2074270;28;20169;-64
2022/07/27 00:26:46;;;;;;;4.63;2.47;;;;;;;;;;2073951;28;20172;-64
2022/07/27 00:27:46;;;;;;;2.10;1.95;;;;;;;;;;2073973;28;20177;-65
2022/07/27 00:28:47;;;;;;;2.53;2.33;;;;;;;;;;2073711;28;20180;-65
2022/07/27 00:29:47;;;;;;;4.40;2.63;;;;;;;;;;2073879;28;20180;-64
2022/07/27 00:30:47;;;;;;;3.20;2.20;;;;;;;;;;2073797;28;20180;-65
2022/07/27 00:31:48;;;;;;;3.22;2.10;;;;;;;;;;2073795;28;20247;-64
2022/07/27 00:32:48;;;;;;;4.53;2.05;;;;;;;;;;2073674;28;20200;-64
2022/07/27 00:33:49;;;;;;;2.28;1.83;;;;;;;;;;2073757;28;20180;-64
2022/07/27 00:34:49;;;;;;;3.25;2.05;;;;;;;;;;2072551;28;20682;-64
2022/07/27 00:35:49;;;;;;;2.97;1.95;;;;;;;;;;2073663;28;20208;-65
2022/07/27 00:36:49;;;;;;;5.50;2.58;;;;;;;;;;2074192;28;20169;-65
2022/07/27 00:37:50;;;;;;;2.90;2.15;;;;;;;;;;2074536;28;20168;-64
2022/07/27 00:38:51;;;;;;;4.30;2.40;;;;;;;;;;2074325;28;20237;-65
2022/07/27 00:39:53;;;;;;;2.65;1.80;;;;;;;;;;2074861;28;20199;-64
2022/07/27 00:40:53;;;;;;;2.97;2.10;;;;;;;;;;2074446;28;20181;-64
2022/07/27 00:41:53;;;;;;;4.00;2.25;;;;;;;;;;2074472;28;20196;-65
2022/07/27 00:42:54;;;;;;;2.78;2.22;;;;;;;;;;2074292;28;20586;-65
2022/07/27 00:43:55;;;;;;;2.42;2.13;;;;;;;;;;2073857;28;20204;-64
2022/07/27 00:44:56;;;;;;;3.10;2.28;;;;;;;;;;2088408;22;20223;-66
2022/07/27 00:45:56;;;;;;;4.47;2.03;;;;;;;;;;2088137;28;20233;-67
2022/07/27 00:46:57;;;;;;;4.40;2.35;;;;;;;;;;2088944;28;20228;-65
2022/07/27 00:47:58;;;;;;;2.15;1.90;;;;;;;;;;2090135;28;20179;-65
2022/07/27 00:48:58;;;;;;;4.07;2.30;;;;;;;;;;2090154;28;20255;-65
2022/07/27 00:49:59;;;;;;;2.70;2.08;;;;;;;;;;2089321;28;20245;-62
2022/07/27 00:50:59;;;;;;;2.40;2.13;;;;;;;;;;2089724;28;20221;-67
2022/07/27 00:52:00;;;;;;;2.47;2.20;;;;;;;;;;2089833;28;20198;-63
2022/07/27 00:53:00;;;;;;;3.22;2.20;;;;;;;;;;2089641;28;20509;-63
2022/07/27 00:54:00;;;;;;;2.85;2.10;;;;;;;;;;2088428;28;20294;-63
2022/07/27 00:55:01;;;;;;;1.95;1.85;;;;;;;;;;2089452;28;20203;-64
2022/07/27 00:56:01;;;;;;;2.65;2.38;;;;;;;;;;2089399;28;20199;-66
2022/07/27 00:57:02;;;;;;;3.55;2.20;;;;;;;;;;2089788;28;20586;-67
2022/07/27 00:58:04;;;;;;;2.33;2.13;;;;;;;;;;2089715;28;20180;-65
2022/07/27 00:59:05;;;;;;;3.40;2.13;;;;;;;;;;2088880;28;20163;-64
2022/07/27 01:00:05;;;;;;;7.28;2.38;;;;;;;;;;2072793;28;20180;-66
2022/07/27 01:01:06;;;;;;;4.68;2.45;;;;;;;;;;2078218;28;20168;-65
2022/07/27 01:02:07;;;;;;;2.72;2.50;;;;;;;;;;2082202;28;20164;-66
2022/07/27 01:03:07;;;;;;;3.28;2.28;;;;;;;;;;2085052;28;20257;-65
2022/07/27 01:04:08;;;;;;;3.38;2.13;;;;;;;;;;2088778;28;20175;-66
2022/07/27 01:05:08;;;;;;;2.45;2.10;;;;;;;;;;2089562;28;20531;-66
2022/07/27 01:06:08;;;;;;;3.70;2.10;;;;;;;;;;2089529;28;20516;-65
2022/07/27 01:07:09;;;;;;;4.38;2.30;;;;;;;;;;2089766;28;20171;-66
2022/07/27 01:08:14;;;;;;;2.65;2.00;;;;;;;;;;2089460;28;20183;-65
2022/07/27 01:10:34;;;;;;;4.30;2.40;;;;;;;;;;2089601;28;20190;-65
2022/07/27 01:11:34;;;;;;;4.25;2.60;;;;;;;;;;2080672;28;20176;-68
2022/07/27 01:12:35;;;;;;;3.60;2.45;;;;;;;;;;2080658;28;20172;-65
2022/07/27 01:13:36;;;;;;;3.60;2.33;;;;;;;;;;2080907;28;20182;-65
2022/07/27 01:14:37;;;;;;;6.57;2.83;;;;;;;;;;2080290;28;20234;-64
2022/07/27 01:15:38;;;;;;;2.65;2.42;;;;;;;;;;2080733;28;20535;-65
2022/07/27 01:16:38;;;;;;;2.92;1.92;;;;;;;;;;2080793;28;20176;-66
2022/07/27 01:17:39;;;;;;;2.72;2.05;;;;;;;;;;2089476;28;20207;-68
2022/07/27 01:18:39;;;;;;;2.95;2.33;;;;;;;;;;2089395;28;20187;-66
2022/07/27 01:19:40;;;;;;;6.03;2.30;;;;;;;;;;2086442;28;20194;-65
2022/07/27 01:20:40;;;;;;;3.00;2.47;;;;;;;;;;2088555;28;20186;-66
2022/07/27 01:21:41;;;;;;;2.30;2.08;;;;;;;;;;2089122;28;20168;-68
2022/07/27 01:22:41;;;;;;;5.20;2.60;;;;;;;;;;2089496;28;20194;-67
2022/07/27 01:23:41;;;;;;;8.25;3.10;;;;;;;;;;2089347;28;20274;-68
2022/07/27 01:24:42;;;;;;;4.10;2.30;;;;;;;;;;2087278;28;20613;-62
2022/07/27 01:25:42;;;;;;;4.93;2.80;;;;;;;;;;2073550;28;20181;-67
2022/07/27 01:26:43;;;;;;;2.95;2.50;;;;;;;;;;2089020;28;20175;-66
2022/07/27 01:27:43;;;;;;;9.05;2.72;;;;;;;;;;2089588;28;20388;-66
2022/07/27 01:28:45;;;;;;;4.05;2.70;;;;;;;;;;2080772;28;20176;-64
2022/07/27 01:29:45;;;;;;;4.50;2.40;;;;;;;;;;2071771;28;20215;-64
2022/07/27 01:30:45;;;;;;;2.67;2.20;;;;;;;;;;2079526;28;20188;-65
2022/07/27 01:31:46;;;;;;;3.05;2.25;;;;;;;;;;2089492;28;20199;-65
2022/07/27 01:32:46;;;;;;;3.15;2.58;;;;;;;;;;2089699;28;20225;-66
2022/07/27 01:33:46;;;;;;;3.20;2.70;;;;;;;;;;2089553;28;20179;-65
2022/07/27 01:34:47;;;;;;;2.70;2.50;;;;;;;;;;2088499;28;20215;-63
2022/07/27 01:35:47;;;;;;;2.58;2.38;;;;;;;;;;2089524;28;20254;-63
2022/07/27 01:36:47;;;;;;;3.03;2.20;;;;;;;;;;2089580;28;20168;-66
2022/07/27 01:37:48;;;;;;;4.97;2.55;;;;;;;;;;2089759;28;20166;-65
2022/07/27 01:38:48;;;;;;;4.07;2.70;;;;;;;;;;2089537;28;20182;-64
2022/07/27 01:39:48;;;;;;;6.72;2.33;;;;;;;;;;2089737;28;20210;-63
2022/07/27 01:40:50;;;;;;;3.35;2.33;;;;;;;;;;2089406;28;20694;-65
2022/07/27 01:41:50;;;;;;;4.38;2.10;;;;;;;;;;2080993;28;20207;-67
2022/07/27 01:42:50;;;;;;;3.22;2.30;;;;;;;;;;2072344;28;20184;-61
2022/07/27 01:43:51;;;;;;;3.72;2.50;;;;;;;;;;2080661;28;20172;-64
2022/07/27 01:44:51;;;;;;;4.53;2.42;;;;;;;;;;2079793;28;20274;-65
2022/07/27 01:45:51;;;;;;;4.68;2.40;;;;;;;;;;2089454;28;20242;-66
2022/07/27 01:46:52;;;;;;;2.20;1.92;;;;;;;;;;2090982;28;20199;-64
2022/07/27 01:47:52;;;;;;;2.85;2.53;;;;;;;;;;2091162;28;20636;-64
2022/07/27 01:48:52;;;;;;;3.55;2.72;;;;;;;;;;2091125;28;20195;-65
2022/07/27 01:49:53;;;;;;;2.30;2.00;;;;;;;;;;2091282;28;20183;-65
2022/07/27 01:50:53;;;;;;;3.17;2.30;;;;;;;;;;2091147;28;20160;-65
2022/07/27 01:51:54;;;;;;;2.80;2.38;;;;;;;;;;2082307;28;20567;-65
2022/07/27 01:52:54;;;;;;;2.47;2.20;;;;;;;;;;2082240;28;20188;-67
2022/07/27 01:53:54;;;;;;;3.60;2.25;;;;;;;;;;2087323;28;20214;-65
2022/07/27 01:54:55;;;;;;;5.10;2.22;;;;;;;;;;2090285;28;20268;-67
2022/07/27 01:55:55;;;;;;;2.53;2.17;;;;;;;;;;2090818;28;20176;-66
2022/07/27 01:56:55;;;;;;;3.17;2.45;;;;;;;;;;2082282;28;20172;-66
2022/07/27 01:57:56;;;;;;;2.80;2.03;;;;;;;;;;2082071;28;20310;-65
2022/07/27 01:58:57;;;;;;;3.30;2.20;;;;;;;;;;2091121;28;20175;-66
2022/07/27 01:59:59;;;;;;;3.70;2.25;;;;;;;;;;2091031;28;20632;-65
2022/07/27 02:00:59;;;;;;;2.97;2.58;;;;;;;;;;2091198;28;20164;-65
2022/07/27 02:01:59;;;;;;;2.78;2.20;;;;;;;;;;2091027;28;20604;-67
2022/07/27 02:03:00;;;;;;;3.83;2.42;;;;;;;;;;2082165;28;20175;-63
2022/07/27 02:04:00;;;;;;;4.13;2.63;;;;;;;;;;2081219;28;20556;-64
2022/07/27 02:05:00;;;;;;;5.45;2.70;;;;;;;;;;2082060;28;20195;-65
2022/07/27 02:06:01;;;;;;;5.45;2.53;;;;;;;;;;2082320;28;20274;-64
2022/07/27 02:07:01;;;;;;;4.68;2.40;;;;;;;;;;2091000;28;20700;-65
2022/07/27 02:08:02;;;;;;;2.30;2.10;;;;;;;;;;2082101;28;20653;-66
2022/07/27 02:09:03;;;;;;;6.00;2.47;;;;;;;;;;2082351;28;20268;-64
2022/07/27 02:10:03;;;;;;;3.70;2.33;;;;;;;;;;2074025;28;20659;-65
2022/07/27 02:12:35;;;;;;;5.57;2.33;;;;;;;;;;2089463;28;20703;-65
2022/07/27 02:13:35;;;;;;;4.22;2.83;;;;;;;;;;2090841;28;20262;-66
2022/07/27 02:14:35;;;;;;;4.82;2.88;;;;;;;;;;2081226;28;20204;-66
2022/07/27 02:15:35;;;;;;;2.90;2.70;;;;;;;;;;2081982;28;20206;-66
2022/07/27 02:16:36;;;;;;;3.33;2.92;;;;;;;;;;2090786;28;20168;-66
2022/07/27 02:17:37;;;;;;;3.15;2.85;;;;;;;;;;2090796;28;20179;-66
2022/07/27 02:18:37;;;;;;;4.78;2.60;;;;;;;;;;2090854;28;20174;-65
2022/07/27 02:19:37;;;;;;;4.70;2.60;;;;;;;;;;2073680;28;20192;-66
2022/07/27 02:20:41;;;;;;;2.90;2.30;;;;;;;;;;2073970;28;20189;-65
2022/07/27 02:21:41;;;;;;;4.13;2.97;;;;;;;;;;2090989;28;20237;-66
2022/07/27 02:22:42;;;;;;;3.53;2.92;;;;;;;;;;2090757;28;20172;-65
2022/07/27 02:23:43;;;;;;;3.80;2.60;;;;;;;;;;2090863;28;20191;-66
2022/07/27 02:24:44;;;;;;;5.25;2.70;;;;;;;;;;2080970;28;20189;-66
2022/07/27 02:25:44;;;;;;;4.28;2.45;;;;;;;;;;2082317;28;20184;-67
2022/07/27 02:26:44;;;;;;;2.65;2.50;;;;;;;;;;2081907;28;20176;-66
2022/07/27 02:27:45;;;;;;;4.60;2.72;;;;;;;;;;2082129;28;20226;-65
2022/07/27 02:28:45;;;;;;;2.47;2.28;;;;;;;;;;2081921;28;20192;-66
2022/07/27 02:29:46;;;;;;;3.35;2.60;;;;;;;;;;2091035;28;20182;-66
2022/07/27 02:30:46;;;;;;;4.82;2.40;;;;;;;;;;2081915;28;20730;-64
2022/07/27 02:31:46;;;;;;;5.88;2.53;;;;;;;;;;2082064;28;20641;-65
2022/07/27 02:32:47;;;;;;;3.97;2.80;;;;;;;;;;2090800;28;20225;-67
2022/07/27 02:33:47;;;;;;;2.88;2.38;;;;;;;;;;2082188;28;20212;-66
2022/07/27 02:34:47;;;;;;;3.25;2.30;;;;;;;;;;2081070;28;20270;-65
2022/07/27 02:35:48;;;;;;;3.03;2.72;;;;;;;;;;2090898;28;20576;-65
2022/07/27 02:36:48;;;;;;;3.00;2.70;;;;;;;;;;2090655;28;20160;-66
2022/07/27 02:37:48;;;;;;;3.70;2.55;;;;;;;;;;2090875;28;20602;-65
2022/07/27 02:38:48;;;;;;;6.18;3.10;;;;;;;;;;2090326;28;20547;-66
2022/07/27 02:39:49;;;;;;;3.10;2.80;;;;;;;;;;2090955;28;20179;-67
2022/07/27 02:40:49;;;;;;;2.60;2.30;;;;;;;;;;2091121;28;20771;-66
2022/07/27 02:41:50;;;;;;;5.03;3.05;;;;;;;;;;2090751;28;20644;-66
2022/07/27 02:42:50;;;;;;;2.50;2.30;;;;;;;;;;2090699;28;20323;-65
2022/07/27 02:43:51;;;;;;;3.28;2.97;;;;;;;;;;2090698;28;20696;-63
2022/07/27 02:44:51;;;;;;;5.43;3.00;;;;;;;;;;2089617;28;20216;-61
2022/07/27 02:45:51;;;;;;;3.28;2.97;;;;;;;;;;2081956;28;20168;-65
2022/07/27 02:46:51;;;;;;;2.85;2.65;;;;;;;;;;2081845;28;20676;-63
2022/07/27 02:47:52;;;;;;;5.88;2.60;;;;;;;;;;2081857;28;20274;-64
2022/07/27 02:48:52;;;;;;;3.97;2.60;;;;;;;;;;2090734;28;20176;-65
2022/07/27 02:49:52;;;;;;;3.97;2.30;;;;;;;;;;2090543;28;20176;-66
2022/07/27 02:50:53;;;;;;;3.03;2.80;;;;;;;;;;2090903;28;20586;-65
2022/07/27 02:51:53;;;;;;;5.95;3.03;;;;;;;;;;2090568;28;20222;-66
2022/07/27 02:52:54;;;;;;;3.13;2.92;;;;;;;;;;2089933;28;20193;-65
2022/07/27 02:53:54;;;;;;;4.88;2.90;;;;;;;;;;2087245;28;20216;-67
2022/07/27 02:54:54;;;;;;;5.43;2.92;;;;;;;;;;2090188;28;20585;-67
2022/07/27 02:55:55;;;;;;;3.00;2.70;;;;;;;;;;2090268;28;20612;-67
2022/07/27 02:56:55;;;;;;;2.63;2.40;;;;;;;;;;2090513;28;20176;-65
2022/07/27 02:57:56;;;;;;;4.95;2.90;;;;;;;;;;2081817;28;20176;-66
2022/07/27 02:58:56;;;;;;;2.53;2.33;;;;;;;;;;2081832;28;20160;-65
2022/07/27 02:59:56;;;;;;;3.10;2.80;;;;;;;;;;2090403;28;20634;-66
2022/07/27 03:00:56;;;;;;;4.20;2.80;;;;;;;;;;2090610;28;20168;-64
2022/07/27 03:01:57;;;;;;;3.53;2.83;;;;;;;;;;2090491;28;20259;-67
2022/07/27 03:02:57;;;;;;;3.97;2.67;;;;;;;;;;2090538;28;20205;-65
2022/07/27 03:03:57;;;;;;;5.85;2.95;;;;;;;;;;2090218;28;20156;-59
2022/07/27 03:04:58;;;;;;;5.15;3.10;;;;;;;;;;2090062;28;20570;-64
2022/07/27 03:05:58;;;;;;;3.13;2.92;;;;;;;;;;2090733;28;20640;-61
2022/07/27 03:06:58;;;;;;;4.13;2.70;;;;;;;;;;2090873;28;20221;-65
2022/07/27 03:07:59;;;;;;;5.03;3.10;;;;;;;;;;2081542;28;20636;-65
2022/07/27 03:09:00;;;;;;;3.85;2.95;;;;;;;;;;2081948;28;20233;-65
2022/07/27 03:10:00;;;;;;;4.95;2.90;;;;;;;;;;2081740;28;20208;-65
2022/07/27 03:11:01;;;;;;;4.25;2.83;;;;;;;;;;2090778;28;20171;-65
2022/07/27 03:12:02;;;;;;;3.47;2.60;;;;;;;;;;2090524;28;20176;-66
2022/07/27 03:13:02;;;;;;;5.15;3.25;;;;;;;;;;2090600;28;20179;-65
2022/07/27 03:14:02;;;;;;;5.07;2.78;;;;;;;;;;2089715;28;20174;-64
2022/07/27 03:15:03;;;;;;;8.70;3.47;;;;;;;;;;2090454;28;20215;-65
2022/07/27 03:16:05;;;;;;;3.65;3.22;;;;;;;;;;2090505;28;20163;-66
2022/07/27 03:17:05;;;;;;;5.03;2.90;;;;;;;;;;2090465;28;20218;-65
2022/07/27 03:18:05;;;;;;;6.15;3.15;;;;;;;;;;2090526;28;20208;-66
2022/07/27 03:19:05;;;;;;;3.67;3.20;;;;;;;;;;2090859;28;20167;-63
2022/07/27 03:20:06;;;;;;;7.63;3.58;;;;;;;;;;2090696;28;20160;-65
2022/07/27 03:21:07;;;;;;;4.30;2.90;;;;;;;;;;2090617;28;20156;-64
2022/07/27 03:22:07;;;;;;;4.57;3.33;;;;;;;;;;2090322;28;20190;-65
2022/07/27 03:23:07;;;;;;;6.00;3.25;;;;;;;;;;2090269;28;20179;-65
2022/07/27 03:24:08;;;;;;;3.42;3.15;;;;;;;;;;2089778;28;20179;-64
2022/07/27 03:25:08;;;;;;;6.38;3.53;;;;;;;;;;2090489;28;20183;-65
2022/07/27 03:26:09;;;;;;;6.60;3.40;;;;;;;;;;2090630;28;20164;-65
2022/07/27 03:27:09;;;;;;;4.00;3.50;;;;;;;;;;2090308;28;20179;-65
2022/07/27 03:28:09;;;;;;;3.47;3.10;;;;;;;;;;2090485;28;20309;-65
2022/07/27 03:29:10;;;;;;;3.95;3.63;;;;;;;;;;2081438;28;20751;-65
2022/07/27 03:30:11;;;;;;;6.25;3.70;;;;;;;;;;2073625;28;20510;-65
2022/07/27 03:31:11;;;;;;;6.13;3.97;;;;;;;;;;2082265;28;20175;-66
2022/07/27 03:32:11;;;;;;;4.13;3.83;;;;;;;;;;2090556;28;20214;-65
2022/07/27 03:33:12;;;;;;;4.72;3.67;;;;;;;;;;2081629;28;20164;-65
2022/07/27 03:34:12;;;;;;;5.20;3.22;;;;;;;;;;2073100;28;20259;-65
2022/07/27 03:35:13;;;;;;;5.28;3.63;;;;;;;;;;2088911;28;20211;-66
2022/07/27 03:36:13;;;;;;;9.02;3.33;;;;;;;;;;2090898;28;20179;-66
2022/07/27 03:37:15;;;;;;;4.60;3.50;;;;;;;;;;2090679;28;20171;-65
2022/07/27 03:38:16;;;;;;;6.38;3.53;;;;;;;;;;2081974;28;20242;-65
2022/07/27 03:39:16;;;;;;;3.67;3.40;;;;;;;;;;2081849;28;20172;-65
2022/07/27 03:40:17;;;;;;;6.25;3.55;;;;;;;;;;2090824;28;20531;-64
2022/07/27 03:41:17;;;;;;;8.00;3.63;;;;;;;;;;2090644;28;20175;-66
2022/07/27 03:42:18;;;;;;;6.07;3.53;;;;;;;;;;2092453;28;20214;-65
2022/07/27 03:43:18;;;;;;;4.07;2.92;;;;;;;;;;2093785;28;20188;-64
2022/07/27 03:44:19;;;;;;;3.25;2.95;;;;;;;;;;2089692;28;20183;-65
2022/07/27 03:45:19;;;;;;;8.52;3.65;;;;;;;;;;2090768;28;20538;-66
2022/07/27 03:46:19;;;;;;;4.32;2.97;;;;;;;;;;2090550;28;20198;-64
2022/07/27 03:47:19;;;;;;;6.32;3.25;;;;;;;;;;2090681;28;20205;-66
2022/07/27 03:48:20;;;;;;;5.38;3.08;;;;;;;;;;2090584;28;20195;-65
2022/07/27 03:49:20;;;;;;;5.85;3.33;;;;;;;;;;2090498;28;20706;-66
2022/07/27 03:50:21;;;;;;;6.47;3.25;;;;;;;;;;2090464;28;20183;-67
2022/07/27 03:51:22;;;;;;;3.67;3.33;;;;;;;;;;2090686;28;20258;-65
2022/07/27 03:52:22;;;;;;;6.93;3.92;;;;;;;;;;2090314;28;20172;-67
2022/07/27 03:53:22;;;;;;;4.85;3.35;;;;;;;;;;2090664;28;20211;-66
2022/07/27 03:54:23;;;;;;;3.90;3.60;;;;;;;;;;2089325;28;20171;-66
2022/07/27 03:55:23;;;;;;;7.63;3.42;;;;;;;;;;2090474;28;20309;-67
2022/07/27 03:56:23;;;;;;;3.72;3.22;;;;;;;;;;2090311;28;20595;-65
2022/07/27 03:57:24;;;;;;;4.20;3.50;;;;;;;;;;2090778;28;20187;-66
2022/07/27 03:58:24;;;;;;;4.68;3.70;;;;;;;;;;2090203;28;20657;-66
2022/07/27 03:59:24;;;;;;;5.45;3.92;;;;;;;;;;2090630;28;20171;-66
2022/07/27 04:00:25;;;;;;;5.05;3.70;;;;;;;;;;2089982;28;20179;-61
2022/07/27 04:01:25;;;;;;;4.55;4.00;;;;;;;;;;2090212;28;20225;-65
2022/07/27 04:02:25;;;;;;;5.53;3.92;;;;;;;;;;2090487;28;20248;-65
2022/07/27 04:03:26;;;;;;;5.85;4.03;;;;;;;;;;2090179;28;20790;-66
2022/07/27 04:04:26;;;;;;;4.22;3.83;;;;;;;;;;2080533;28;20271;-64
2022/07/27 04:05:26;;;;;;;6.35;3.75;;;;;;;;;;2081592;28;20195;-65
2022/07/27 04:06:27;;;;;;;5.60;3.63;;;;;;;;;;2090668;28;20622;-65
2022/07/27 04:07:27;;;;;;;4.85;4.05;;;;;;;;;;2080795;28;20181;-66
2022/07/27 04:08:28;;;;;;;4.45;4.05;;;;;;;;;;2073775;28;20176;-66
2022/07/27 04:09:28;;;;;;;6.20;3.95;;;;;;;;;;2082543;28;20171;-65
2022/07/27 04:10:28;;;;;;;3.85;3.47;;;;;;;;;;2081213;28;20517;-66
2022/07/27 04:11:29;;;;;;;6.45;3.92;;;;;;;;;;2080834;28;20664;-66
2022/07/27 04:12:29;;;;;;;7.07;3.63;;;;;;;;;;2077752;28;20637;-66
2022/07/27 04:13:29;;;;;;;4.82;3.97;;;;;;;;;;2082983;28;20544;-65
2022/07/27 04:14:30;;;;;;;6.00;4.13;;;;;;;;;;2088893;28;20251;-66
2022/07/27 04:15:30;;;;;;;6.82;4.50;;;;;;;;;;2090632;28;20183;-66
2022/07/27 04:16:30;;;;;;;7.50;4.47;;;;;;;;;;2090912;28;20168;-66
2022/07/27 04:17:31;;;;;;;6.65;4.28;;;;;;;;;;2089412;28;20846;-66
2022/07/27 04:18:31;;;;;;;5.80;5.20;;;;;;;;;;2081813;28;20164;-66
2022/07/27 04:19:31;;;;;;;5.65;4.72;;;;;;;;;;2090463;28;20176;-66
2022/07/27 04:20:32;;;;;;;7.07;5.05;;;;;;;;;;2091014;28;20211;-66
2022/07/27 04:21:33;;;;;;;10.07;4.90;;;;;;;;;;2090932;28;20191;-67
2022/07/27 04:22:33;;;;;;;4.20;3.67;;;;;;;;;;2090869;28;20182;-66
2022/07/27 04:23:34;;;;;;;4.43;3.97;;;;;;;;;;2090742;28;20171;-66
2022/07/27 04:24:34;;;;;;;7.85;3.95;;;;;;;;;;2080910;28;20605;-66
2022/07/27 04:25:34;;;;;;;7.45;4.35;;;;;;;;;;2081813;28;20180;-65
2022/07/27 04:26:35;;;;;;;5.38;4.65;;;;;;;;;;2090486;28;20176;-66
2022/07/27 04:27:36;;;;;;;6.40;4.32;;;;;;;;;;2090168;28;20194;-66
2022/07/27 04:28:36;;;;;;;4.88;4.35;;;;;;;;;;2090543;28;20176;-66
2022/07/27 04:29:36;;;;;;;6.82;4.30;;;;;;;;;;2090577;28;20250;-65
2022/07/27 04:30:37;;;;;;;7.50;4.25;;;;;;;;;;2079637;28;20180;-65
2022/07/27 04:31:37;;;;;;;6.30;4.43;;;;;;;;;;2079042;28;20736;-66
2022/07/27 04:32:38;;;;;;;4.60;4.05;;;;;;;;;;2078598;28;20178;-65
2022/07/27 04:33:38;;;;;;;6.70;4.28;;;;;;;;;;2077422;28;20181;-64
2022/07/27 04:34:38;;;;;;;5.18;4.45;;;;;;;;;;2085282;28;20329;-64
2022/07/27 04:35:39;;;;;;;13.23;4.55;;;;;;;;;;2085115;28;20180;-66
2022/07/27 04:36:39;;;;;;;4.93;4.07;;;;;;;;;;2080380;28;20645;-66
2022/07/27 04:37:39;;;;;;;6.82;4.30;;;;;;;;;;2090304;28;20182;-66
2022/07/27 04:38:40;;;;;;;5.57;4.75;;;;;;;;;;2088723;28;20528;-64
2022/07/27 04:39:40;;;;;;;7.55;5.53;;;;;;;;;;2089472;28;20174;-63
2022/07/27 04:40:41;;;;;;;5.32;4.82;;;;;;;;;;2081450;28;20794;-66
2022/07/27 04:41:41;;;;;;;5.18;4.18;;;;;;;;;;2079829;28;20184;-66
2022/07/27 04:42:41;;;;;;;4.75;4.00;;;;;;;;;;2075291;28;20207;-65
2022/07/27 04:43:42;;;;;;;10.05;4.32;;;;;;;;;;2087268;28;20207;-66
2022/07/27 04:44:42;;;;;;;7.03;4.50;;;;;;;;;;2088857;28;20715;-66
2022/07/27 04:45:42;;;;;;;5.25;4.60;;;;;;;;;;2087724;28;20398;-64
2022/07/27 04:46:43;;;;;;;4.93;4.50;;;;;;;;;;2090581;28;20187;-60
2022/07/27 04:47:43;;;;;;;5.10;3.88;;;;;;;;;;2091201;28;20171;-65
2022/07/27 04:48:43;;;;;;;5.60;4.10;;;;;;;;;;2090243;28;20180;-64
2022/07/27 04:49:44;;;;;;;6.90;4.30;;;;;;;;;;2092695;28;20203;-65
2022/07/27 04:50:46;;;;;;;6.15;4.05;;;;;;;;;;2094378;28;20176;-63
2022/07/27 04:51:46;;;;;;;6.43;3.95;;;;;;;;;;2091699;28;20183;-62
2022/07/27 04:52:46;;;;;;;4.65;4.20;;;;;;;;;;2092285;28;20177;-61
2022/07/27 04:53:47;;;;;;;5.65;4.28;;;;;;;;;;2092500;28;20198;-64
2022/07/27 04:54:53;;;;;;;5.22;4.15;;;;;;;;;;2090649;28;20191;-65
2022/07/27 04:55:54;;;;;;;4.68;4.22;;;;;;;;;;2087735;28;20175;-62
2022/07/27 04:56:55;;;;;;;4.63;4.10;;;;;;;;;;2084627;28;20229;-64
2022/07/27 04:57:58;;;;;;;7.90;4.00;;;;;;;;;;2082925;28;20695;-63
2022/07/27 04:58:59;;;;;;;4.85;4.13;;;;;;;;;;2083183;28;20172;-61
2022/07/27 04:59:59;;;;;;;6.07;3.88;;;;;;;;;;2092409;28;20163;-63
2022/07/27 05:01:00;;;;;;;4.85;3.75;;;;;;;;;;2091901;28;20656;-63
2022/07/27 05:02:00;;;;;;;6.40;4.25;;;;;;;;;;2092399;28;20159;-61
2022/07/27 05:03:00;;;;;;;6.03;4.30;;;;;;;;;;2090495;28;20167;-63
2022/07/27 05:04:02;;;;;;;4.90;4.07;;;;;;;;;;2090362;28;20688;-62
2022/07/27 05:05:03;;;;;;;4.40;4.00;;;;;;;;;;2090855;28;20175;-63
2022/07/27 05:06:03;;;;;;;4.53;3.85;;;;;;;;;;2091718;28;20612;-62
2022/07/27 05:07:04;;;;;;;6.70;4.40;;;;;;;;;;2091608;28;20203;-64
2022/07/27 05:08:04;;;;;;;5.28;3.70;;;;;;;;;;2093777;28;20227;-62
2022/07/27 05:09:05;;;;;;;4.45;3.90;;;;;;;;;;2093365;28;20176;-62
2022/07/27 05:10:05;;;;;;;8.40;4.40;;;;;;;;;;2092428;28;20167;-62
2022/07/27 05:11:06;;;;;;;5.05;3.72;;;;;;;;;;2092970;28;20187;-60
2022/07/27 05:12:06;;;;;;;4.50;3.92;;;;;;;;;;2083842;28;20179;-60
2022/07/27 05:13:06;;;;;;;4.72;3.80;;;;;;;;;;2082745;28;20195;-61
2022/07/27 05:14:07;;;;;;;3.53;3.22;;;;;;;;;;2080988;28;20694;-63
2022/07/27 05:15:07;;;;;;;5.60;4.03;;;;;;;;;;2081266;28;20192;-67
2022/07/27 05:16:09;;;;;;;4.45;4.05;;;;;;;;;;2090221;28;20179;-61
2022/07/27 05:17:09;;;;;;;5.90;3.65;;;;;;;;;;2090107;28;20156;-63
2022/07/27 05:18:10;;;;;;;5.18;4.50;;;;;;;;;;2090339;28;20203;-62
2022/07/27 05:19:11;;;;;;;5.38;4.18;;;;;;;;;;2090448;28;20196;-64
2022/07/27 05:20:11;;;;;;;4.50;4.10;;;;;;;;;;2089934;28;20628;-63
2022/07/27 05:21:11;;;;;;;5.22;3.58;;;;;;;;;;2089758;28;20168;-64
2022/07/27 05:22:12;;;;;;;7.53;4.40;;;;;;;;;;2090728;28;20163;-62
2022/07/27 05:23:12;;;;;;;4.97;3.50;;;;;;;;;;2089413;28;20262;-63
2022/07/27 05:24:13;;;;;;;4.25;3.83;;;;;;;;;;2088647;28;20167;-61
2022/07/27 05:25:13;;;;;;;6.43;4.03;;;;;;;;;;2090061;28;20195;-61
2022/07/27 05:26:13;;;;;;;5.72;3.40;;;;;;;;;;2090123;28;20167;-62
2022/07/27 05:27:14;;;;;;;4.18;3.78;;;;;;;;;;2089982;28;20198;-63
2022/07/27 05:28:14;;;;;;;4.80;3.22;;;;;;;;;;2090036;28;20171;-62
2022/07/27 05:29:14;;;;;;;4.53;3.10;;;;;;;;;;2090045;28;20163;-62
2022/07/27 05:30:15;;;;;;;7.03;3.97;;;;;;;;;;2089676;28;20187;-61
2022/07/27 05:31:15;;;;;;;4.07;3.22;;;;;;;;;;2089291;28;20255;-63
2022/07/27 05:32:16;;;;;;;8.75;3.63;;;;;;;;;;2089154;28;20659;-63
2022/07/27 05:33:16;;;;;;;5.93;3.85;;;;;;;;;;2090155;28;20630;-63
2022/07/27 05:34:16;;;;;;;5.53;3.30;;;;;;;;;;2088960;28;20549;-62
2022/07/27 05:35:17;;;;;;;5.75;3.00;;;;;;;;;;2089742;28;20208;-65
2022/07/27 05:36:17;;;;;;;8.07;3.92;;;;;;;;;;2089557;28;20250;-63
2022/07/27 05:37:17;;;;;;;5.93;3.60;;;;;;;;;;2089815;28;20631;-62
2022/07/27 05:38:18;;;;;;;4.70;3.63;;;;;;;;;;2089566;28;20636;-63
2022/07/27 05:39:18;;;;;;;3.72;3.42;;;;;;;;;;2089945;28;20172;-61
2022/07/27 05:40:18;;;;;;;6.75;3.95;;;;;;;;;;2089557;28;20183;-65
2022/07/27 05:41:23;;;;;;;8.02;3.75;;;;;;;;;;2089563;28;20170;-64
2022/07/27 05:42:23;;;;;;;4.88;3.55;;;;;;;;;;2089521;28;20183;-63
2022/07/27 05:43:24;;;;;;;6.43;3.97;;;;;;;;;;2089879;28;20191;-61
2022/07/27 05:44:24;;;;;;;5.57;3.58;;;;;;;;;;2079999;28;20204;-61
2022/07/27 05:45:25;;;;;;;4.20;3.78;;;;;;;;;;2081292;28;20269;-63
2022/07/27 05:46:25;;;;;;;6.10;3.88;;;;;;;;;;2090053;28;20180;-63
2022/07/27 05:47:25;;;;;;;6.55;3.63;;;;;;;;;;2090201;28;20163;-61
2022/07/27 05:48:26;;;;;;;8.15;4.47;;;;;;;;;;2089970;28;20189;-62
2022/07/27 05:49:26;;;;;;;7.70;3.65;;;;;;;;;;2090080;28;20166;-63
2022/07/27 05:50:27;;;;;;;7.45;3.92;;;;;;;;;;2080663;28;20176;-61
2022/07/27 05:51:28;;;;;;;11.57;4.70;;;;;;;;;;2080786;28;20629;-64
2022/07/27 05:52:29;;;;;;;6.82;5.03;;;;;;;;;;2089665;28;20207;-64
2022/07/27 05:53:29;;;;;;;4.57;3.67;;;;;;;;;;2086492;28;20174;-63
2022/07/27 05:54:30;;;;;;;6.05;4.32;;;;;;;;;;2087972;28;20171;-61
2022/07/27 05:55:30;;;;;;;4.60;3.60;;;;;;;;;;2089589;28;20163;-63
2022/07/27 05:56:30;;;;;;;5.88;4.03;;;;;;;;;;2089722;28;20156;-64
2022/07/27 05:57:31;;;;;;;7.57;3.13;;;;;;;;;;2089469;28;20233;-63
2022/07/27 05:58:31;;;;;;;7.60;3.70;;;;;;;;;;2089799;28;20266;-61
2022/07/27 05:59:31;;;;;;;3.97;3.50;;;;;;;;;;2089546;28;20179;-62
2022/07/27 06:00:32;;;;;;;5.97;3.60;;;;;;;;;;2089758;28;20176;-62
2022/07/27 06:01:32;;;;;;;9.25;3.15;;;;;;;;;;2089338;28;20167;-64
2022/07/27 06:02:32;;;;;;;6.30;3.38;;;;;;;;;;2089553;28;20171;-59
2022/07/27 06:03:33;;;;;;;4.80;3.00;;;;;;;;;;2089424;28;20168;-61
2022/07/27 06:04:33;;;;;;;9.82;4.03;;;;;;;;;;2088626;28;20182;-60
2022/07/27 06:05:34;;;;;;;2.95;2.70;;;;;;;;;;2089446;28;20238;-64